Roslyn, Washington
Current Conditions -  °F | °C
As of 6:53 PM on Thursday 18 Dec 2014 (Local Time) from KELN Reporting Station
Haze Haze  
Wind Chill: 34°   Ceiling: 300
Heat Index: 38°   Visibility: 4mi
Dew Point: 35°   Wind: 5mph
Humidity: 89%   Direction: 130°SE
Pressure: 29.91"   Gusts: NA
Location:  47.22°N, 120.99°W
Report Text: KELN 190253Z AUTO 13004KT 4SM BR OVC003 03/02 A2991 RMK AO2 CIG 002V006 SLP142 60000 T00330017 55005
Loading
Personal Weather Stations






























Interactive Weather Map New forecast layout! Learn more

10-Day Weather Forecast

Advertisements
Track Severe Weather on mobile